createdAt,value
2022-12-12T00:01:33.567Z,6.24
2022-12-12T00:04:03.258Z,6.28
2022-12-12T00:06:32.674Z,6.25
2022-12-12T00:09:03.585Z,6.24
2022-12-12T00:11:32.485Z,6.35
2022-12-12T00:14:01.132Z,6.43
2022-12-12T00:16:29.825Z,6.37
2022-12-12T00:18:58.423Z,6.29
2022-12-12T00:21:29.205Z,6.32
2022-12-12T00:23:59.251Z,6.31
2022-12-12T00:26:31.500Z,6.45
2022-12-12T00:29:01.205Z,6.53
2022-12-12T00:31:30.600Z,6.52
2022-12-12T00:33:59.411Z,6.42
2022-12-12T00:36:30.604Z,6.43
2022-12-12T00:39:00.445Z,6.51
2022-12-12T00:41:30.560Z,6.28
2022-12-12T00:43:59.168Z,6.34
2022-12-12T00:46:27.996Z,6.16
2022-12-12T00:48:59.321Z,6.50
2022-12-12T00:51:29.925Z,6.54
2022-12-12T00:53:59.434Z,6.57
2022-12-12T00:56:30.949Z,6.54
2022-12-12T00:58:59.579Z,6.59
2022-12-12T01:01:31.279Z,6.64
2022-12-12T01:04:00.312Z,6.53
2022-12-12T01:06:29.546Z,6.38
2022-12-12T01:08:58.686Z,6.29
2022-12-12T01:11:27.903Z,6.36
2022-12-12T01:13:58.201Z,6.42
2022-12-12T01:16:27.016Z,6.39
2022-12-12T01:18:55.738Z,6.37
2022-12-12T01:21:25.212Z,6.35
2022-12-12T01:23:53.851Z,6.51
2022-12-12T01:26:24.574Z,6.64
2022-12-12T01:28:53.290Z,6.40
2022-12-12T01:31:23.438Z,6.49
2022-12-12T01:33:52.331Z,6.50
2022-12-12T01:36:23.368Z,6.42
2022-12-12T01:38:55.140Z,6.12
2022-12-12T01:41:23.889Z,6.05
2022-12-12T01:43:52.812Z,6.05
2022-12-12T01:46:44.525Z,6.09
2022-12-12T01:49:22.405Z,6.23
2022-12-12T01:51:53.806Z,5.98
2022-12-12T01:54:25.942Z,6.09
2022-12-12T01:56:56.188Z,6.24
2022-12-12T01:59:27.254Z,6.28
2022-12-12T02:01:57.967Z,6.13
2022-12-12T02:04:28.791Z,6.04
2022-12-12T02:06:58.345Z,6.22
2022-12-12T02:09:28.083Z,6.34
2022-12-12T02:11:58.998Z,6.21
2022-12-12T02:14:31.561Z,6.28
2022-12-12T02:17:32.900Z,6.17
2022-12-12T02:20:37.291Z,6.38
2022-12-12T02:23:59.422Z,6.26
2022-12-12T02:27:07.587Z,6.32
2022-12-12T02:30:12.200Z,6.16
2022-12-12T02:33:21.768Z,6.13
2022-12-12T02:36:08.265Z,6.09
2022-12-12T02:38:52.004Z,6.20
2022-12-12T02:41:30.479Z,6.05
2022-12-12T02:44:09.837Z,6.22
2022-12-12T02:46:42.944Z,6.19
2022-12-12T02:49:18.770Z,6.14
2022-12-12T02:51:49.349Z,6.30
2022-12-12T02:54:21.679Z,6.24
2022-12-12T02:56:53.966Z,6.18
2022-12-12T02:59:29.612Z,6.05
2022-12-12T03:02:28.547Z,6.19
2022-12-12T03:05:31.379Z,6.14
2022-12-12T03:08:12.775Z,6.04
2022-12-12T03:10:53.583Z,6.12
2022-12-12T03:13:33.299Z,6.30
2022-12-12T03:16:20.122Z,6.12
2022-12-12T03:18:59.359Z,6.11
2022-12-12T03:21:38.173Z,6.12
2022-12-12T03:24:12.042Z,5.79
2022-12-12T03:26:46.676Z,6.05
2022-12-12T03:29:20.760Z,6.21
2022-12-12T03:31:53.722Z,6.23
2022-12-12T03:34:26.275Z,6.20
2022-12-12T03:37:02.306Z,6.13
2022-12-12T03:39:36.812Z,6.25
2022-12-12T03:42:11.399Z,6.25
2022-12-12T03:44:45.145Z,6.31
2022-12-12T03:47:16.967Z,6.19
2022-12-12T03:49:49.524Z,6.12
2022-12-12T03:52:24.251Z,6.07
2022-12-12T03:55:00.093Z,6.11
2022-12-12T03:57:33.198Z,6.11
2022-12-12T04:00:05.995Z,6.09
2022-12-12T04:02:40.166Z,6.05
2022-12-12T04:05:16.263Z,6.09
2022-12-12T04:07:50.895Z,6.11
2022-12-12T04:10:38.417Z,6.00
2022-12-12T04:13:14.203Z,5.99
2022-12-12T04:15:55.271Z,6.12
2022-12-12T04:18:34.411Z,6.18
2022-12-12T04:21:32.625Z,6.13
2022-12-12T04:24:08.454Z,6.03
2022-12-12T04:26:42.896Z,6.12
2022-12-12T04:29:35.366Z,6.15
2022-12-12T04:32:14.434Z,5.95
2022-12-12T04:34:50.642Z,5.99
2022-12-12T04:37:23.528Z,5.96
2022-12-12T04:39:58.762Z,6.04
2022-12-12T04:42:32.427Z,5.97
2022-12-12T04:45:08.149Z,5.99
2022-12-12T04:47:39.465Z,6.13
2022-12-12T04:50:10.520Z,6.06
2022-12-12T04:52:42.528Z,6.03
2022-12-12T04:55:18.910Z,6.01
2022-12-12T04:57:50.827Z,6.00
2022-12-12T05:00:20.779Z,5.95
2022-12-12T05:02:58.829Z,5.86
2022-12-12T05:05:33.774Z,5.66
2022-12-12T05:08:07.926Z,5.95
2022-12-12T05:10:44.223Z,5.79
2022-12-12T05:13:18.376Z,5.83
2022-12-12T05:15:48.463Z,5.84
2022-12-12T05:18:18.111Z,5.71
2022-12-12T05:20:46.723Z,5.78
2022-12-12T05:23:15.760Z,5.68
2022-12-12T05:25:46.111Z,5.84
2022-12-12T05:28:14.715Z,5.84
2022-12-12T05:30:43.404Z,5.79
2022-12-12T05:33:12.075Z,5.82
2022-12-12T05:35:40.716Z,5.76
2022-12-12T05:38:09.370Z,5.82
2022-12-12T05:40:37.996Z,5.58
2022-12-12T05:43:07.973Z,5.71
2022-12-12T05:45:36.593Z,5.74
2022-12-12T05:48:05.328Z,5.81
2022-12-12T05:50:33.993Z,5.90
2022-12-12T05:53:02.600Z,5.93
2022-12-12T05:55:31.206Z,5.99
2022-12-12T05:57:59.819Z,5.94
2022-12-12T06:00:29.822Z,5.92
2022-12-12T06:02:58.498Z,5.93
2022-12-12T06:05:27.127Z,5.85
2022-12-12T06:07:56.445Z,5.90
2022-12-12T06:10:25.295Z,5.93
2022-12-12T06:12:53.898Z,5.95
2022-12-12T06:15:22.523Z,5.85
2022-12-12T06:17:52.555Z,5.81
2022-12-12T06:20:21.234Z,5.82
2022-12-12T06:22:53.763Z,5.84
2022-12-12T06:25:22.882Z,5.88
2022-12-12T06:27:51.595Z,5.91
2022-12-12T06:30:20.462Z,5.83
2022-12-12T06:32:49.083Z,5.87
2022-12-12T06:35:19.202Z,5.93
2022-12-12T06:37:48.468Z,5.97
2022-12-12T06:40:17.636Z,5.95
2022-12-12T06:42:48.520Z,5.81
2022-12-12T06:45:17.771Z,5.89
2022-12-12T06:47:46.556Z,5.85
2022-12-12T06:50:19.089Z,5.87
2022-12-12T06:52:53.333Z,5.84
2022-12-12T06:55:21.997Z,5.85
2022-12-12T06:57:50.684Z,5.86
2022-12-12T07:00:20.090Z,5.84
2022-12-12T07:02:48.708Z,5.88
2022-12-12T07:05:17.613Z,5.86
2022-12-12T07:07:46.235Z,5.94
2022-12-12T07:10:21.106Z,5.86
2022-12-12T07:12:54.574Z,5.79
2022-12-12T07:15:25.894Z,5.71
2022-12-12T07:17:54.954Z,5.72
2022-12-12T07:20:23.683Z,5.63
2022-12-12T07:22:52.328Z,5.67
2022-12-12T07:25:22.317Z,5.63
2022-12-12T07:27:50.976Z,5.69
2022-12-12T07:30:19.796Z,5.66
2022-12-12T07:32:48.384Z,5.56
2022-12-12T07:35:17.112Z,5.63
2022-12-12T07:37:45.698Z,5.62
2022-12-12T07:40:14.589Z,5.61
2022-12-12T07:42:44.626Z,5.64
2022-12-12T07:45:18.021Z,5.55
2022-12-12T07:47:47.430Z,5.64
2022-12-12T07:50:16.060Z,5.57
2022-12-12T07:52:44.705Z,5.54
2022-12-12T07:55:13.668Z,5.60
2022-12-12T07:57:43.811Z,5.53
2022-12-12T08:00:14.522Z,5.51
2022-12-12T08:02:43.234Z,5.54
2022-12-12T08:05:12.332Z,5.60
2022-12-12T08:07:41.309Z,5.60
2022-12-12T08:10:10.587Z,5.53
2022-12-12T08:12:39.240Z,5.52
2022-12-12T08:15:12.735Z,5.59
2022-12-12T08:17:41.712Z,5.71
2022-12-12T08:20:11.529Z,5.61
2022-12-12T08:22:40.149Z,5.61
2022-12-12T08:25:09.412Z,5.66
2022-12-12T08:27:38.266Z,5.63
2022-12-12T08:30:09.837Z,5.70
2022-12-12T08:32:38.633Z,5.68
2022-12-12T08:35:08.352Z,5.62
2022-12-12T08:37:36.975Z,5.62
2022-12-12T08:40:06.752Z,5.60
2022-12-12T08:42:35.444Z,5.62
2022-12-12T08:45:04.088Z,5.66
2022-12-12T08:47:34.097Z,5.59
2022-12-12T08:50:02.722Z,5.58
2022-12-12T08:52:31.345Z,5.48
2022-12-12T08:54:59.950Z,5.44
2022-12-12T08:57:28.624Z,5.58
2022-12-12T08:59:57.387Z,5.57
2022-12-12T09:02:26.358Z,5.60
2022-12-12T09:04:56.419Z,5.47
2022-12-12T09:07:25.090Z,4.74
2022-12-12T09:09:53.663Z,4.99
2022-12-12T09:12:22.321Z,5.11
2022-12-12T09:14:50.943Z,4.86
2022-12-12T09:17:19.551Z,4.89
2022-12-12T09:19:48.204Z,4.88
2022-12-12T09:22:18.627Z,4.07
2022-12-12T09:24:47.208Z,4.66
2022-12-12T09:27:15.871Z,3.91
2022-12-12T09:29:44.452Z,4.65
2022-12-12T09:32:13.150Z,5.03
2022-12-12T09:34:41.815Z,5.25
2022-12-12T09:37:10.591Z,4.94
2022-12-12T09:39:40.729Z,5.20
2022-12-12T09:42:18.744Z,5.69
2022-12-12T09:44:47.809Z,5.87
2022-12-12T09:47:21.505Z,6.18
2022-12-12T09:49:55.139Z,6.01
2022-12-12T09:52:31.605Z,5.78
2022-12-12T09:55:03.837Z,6.20
2022-12-12T09:57:39.186Z,6.60
2022-12-12T10:00:09.578Z,6.54
2022-12-12T10:02:49.523Z,6.04
2022-12-12T10:05:27.883Z,6.42
2022-12-12T10:08:02.191Z,6.31
2022-12-12T10:10:35.326Z,5.30
2022-12-12T10:13:06.849Z,4.99
2022-12-12T10:15:38.447Z,4.36
2022-12-12T10:18:09.714Z,4.30
2022-12-12T10:20:46.634Z,4.69
2022-12-12T10:23:22.237Z,4.42
2022-12-12T10:25:57.338Z,3.77
2022-12-12T10:28:28.160Z,4.25
2022-12-12T10:31:15.420Z,4.28
2022-12-12T10:33:57.312Z,4.52
2022-12-12T10:36:46.855Z,3.84
2022-12-12T10:39:23.508Z,4.03
2022-12-12T10:42:01.384Z,4.63
2022-12-12T10:44:49.179Z,4.25
2022-12-12T10:47:17.970Z,4.49
2022-12-12T10:49:46.577Z,5.09
2022-12-12T10:52:19.198Z,4.83
2022-12-12T10:54:52.339Z,4.60
2022-12-12T10:57:25.553Z,4.91
2022-12-12T10:59:55.734Z,5.25
2022-12-12T11:02:30.975Z,4.81
2022-12-12T11:05:03.880Z,3.93
2022-12-12T11:07:37.415Z,4.31
2022-12-12T11:10:24.713Z,4.17
2022-12-12T11:13:02.357Z,4.62
2022-12-12T11:15:40.576Z,5.04
2022-12-12T11:18:14.704Z,5.08
2022-12-12T11:20:47.782Z,5.18
2022-12-12T11:23:21.056Z,5.19
2022-12-12T11:25:57.071Z,4.73
2022-12-12T11:28:31.052Z,4.78
2022-12-12T11:31:02.932Z,4.80
2022-12-12T11:33:35.820Z,3.67
2022-12-12T11:36:06.644Z,3.55
2022-12-12T11:38:40.947Z,3.34
2022-12-12T11:41:11.994Z,4.58
2022-12-12T11:43:55.948Z,4.63
2022-12-12T11:46:27.528Z,5.05
2022-12-12T11:49:01.782Z,5.32
2022-12-12T11:51:37.197Z,3.09
2022-12-12T11:54:11.898Z,3.77
2022-12-12T11:56:48.376Z,4.73
2022-12-12T11:59:40.570Z,4.38
2022-12-12T12:02:41.927Z,4.38
2022-12-12T12:05:26.022Z,4.33
2022-12-12T12:08:15.657Z,4.67
2022-12-12T12:11:01.571Z,4.84
2022-12-12T12:13:48.260Z,4.94
2022-12-12T12:16:27.061Z,5.15
2022-12-12T12:19:08.760Z,5.08
2022-12-12T12:21:46.986Z,5.55
2022-12-12T12:24:51.553Z,5.32
2022-12-12T12:27:27.594Z,5.30
2022-12-12T12:30:20.756Z,5.52
2022-12-12T12:33:20.403Z,5.83
2022-12-12T12:36:03.479Z,5.74
2022-12-12T12:38:48.617Z,5.23
2022-12-12T12:41:32.792Z,5.94
2022-12-12T12:44:20.431Z,6.08
2022-12-12T12:46:55.143Z,6.30
2022-12-12T12:49:28.647Z,6.70
2022-12-12T12:52:03.027Z,5.74
2022-12-12T12:54:36.405Z,5.68
2022-12-12T12:57:12.021Z,6.42
2022-12-12T12:59:45.356Z,6.79
2022-12-12T13:02:27.170Z,6.64
2022-12-12T13:05:06.938Z,6.85
2022-12-12T13:07:43.442Z,7.00
2022-12-12T13:10:20.917Z,7.05
2022-12-12T13:12:56.797Z,6.31
2022-12-12T13:15:31.744Z,6.41
2022-12-12T13:18:03.837Z,5.95
2022-12-12T13:20:39.014Z,6.58
2022-12-12T13:23:47.056Z,7.04
2022-12-12T13:26:24.422Z,7.31
2022-12-12T13:28:59.459Z,7.23
2022-12-12T13:32:06.966Z,7.30
2022-12-12T13:34:44.651Z,7.55
2022-12-12T13:37:21.369Z,7.37
2022-12-12T13:40:01.201Z,7.47
2022-12-12T13:42:55.013Z,7.70
2022-12-12T13:45:45.455Z,7.65
2022-12-12T13:48:55.094Z,6.94
2022-12-12T13:51:39.853Z,7.22
2022-12-12T13:54:56.744Z,7.27
2022-12-12T13:57:34.099Z,7.42
2022-12-12T14:00:20.904Z,7.39
2022-12-12T14:03:08.050Z,7.14
2022-12-12T14:05:39.842Z,6.51
2022-12-12T14:08:22.728Z,6.87
2022-12-12T14:11:01.542Z,7.38
2022-12-12T14:13:40.279Z,7.24
2022-12-12T14:16:21.047Z,7.38
2022-12-12T14:19:07.506Z,7.51
2022-12-12T14:21:46.454Z,7.63
2022-12-12T14:24:55.427Z,7.28
2022-12-12T14:28:15.782Z,7.63
2022-12-12T14:30:57.312Z,7.46
2022-12-12T14:34:19.294Z,7.53
2022-12-12T14:37:20.359Z,7.53
2022-12-12T14:40:10.855Z,7.43
2022-12-12T14:43:19.289Z,7.48
2022-12-12T14:45:41.182Z,7.57
2022-12-12T14:48:20.909Z,7.59
2022-12-12T14:51:02.505Z,7.46
2022-12-12T14:53:40.557Z,7.53
2022-12-12T14:56:12.630Z,7.65
2022-12-12T14:58:45.952Z,7.74
2022-12-12T15:01:16.937Z,7.72
2022-12-12T15:03:51.046Z,7.85
2022-12-12T15:06:38.460Z,7.85
2022-12-12T15:09:29.530Z,7.85
2022-12-12T15:12:16.648Z,7.57
2022-12-12T15:14:55.271Z,7.64
2022-12-12T15:17:28.359Z,7.68
2022-12-12T15:20:00.642Z,7.72
2022-12-12T15:22:31.012Z,7.61
2022-12-12T15:25:01.731Z,7.82
2022-12-12T15:27:33.766Z,7.83
2022-12-12T15:30:03.767Z,7.79
2022-12-12T15:32:32.467Z,7.62
2022-12-12T15:35:06.380Z,7.51
2022-12-12T15:37:36.005Z,7.39
2022-12-12T15:40:27.261Z,7.32
2022-12-12T15:42:59.151Z,7.22
2022-12-12T15:45:33.433Z,7.21
2022-12-12T15:48:03.420Z,7.14
2022-12-12T15:50:48.186Z,7.01
2022-12-12T15:53:22.115Z,6.96
2022-12-12T15:55:59.772Z,6.90
2022-12-12T15:58:31.994Z,6.88
2022-12-12T16:01:07.835Z,6.81
2022-12-12T16:04:00.053Z,6.78
2022-12-12T16:06:31.937Z,6.67
2022-12-12T16:09:17.024Z,6.70
2022-12-12T16:11:47.121Z,6.69
2022-12-12T16:14:42.403Z,6.62
2022-12-12T16:17:17.486Z,6.59
2022-12-12T16:19:53.658Z,6.62
2022-12-12T16:22:34.607Z,6.60
2022-12-12T16:25:18.740Z,6.53
2022-12-12T16:27:51.189Z,6.54
2022-12-12T16:30:19.585Z,6.54
2022-12-12T16:32:48.042Z,6.41
2022-12-12T16:35:18.690Z,6.40
2022-12-12T16:37:49.147Z,6.45
2022-12-12T16:40:20.025Z,6.38
2022-12-12T16:42:55.861Z,6.33
2022-12-12T16:45:24.636Z,6.28
2022-12-12T16:47:52.988Z,6.25
2022-12-12T16:50:21.478Z,6.25
2022-12-12T16:52:51.399Z,6.28
2022-12-12T16:55:24.381Z,6.22
2022-12-12T16:57:52.851Z,6.24
2022-12-12T17:00:21.754Z,6.20
2022-12-12T17:02:50.235Z,6.11
2022-12-12T17:05:23.421Z,6.14
2022-12-12T17:07:54.199Z,6.05
2022-12-12T17:10:25.443Z,6.06
2022-12-12T17:12:55.088Z,5.85
2022-12-12T17:15:26.200Z,5.65
2022-12-12T17:17:54.787Z,5.84
2022-12-12T17:20:23.325Z,6.06
2022-12-12T17:22:53.556Z,5.99
2022-12-12T17:25:22.827Z,5.86
2022-12-12T17:27:52.543Z,5.79
2022-12-12T17:30:22.449Z,5.85
2022-12-12T17:35:37.091Z,5.77
2022-12-12T17:38:10.233Z,5.87
2022-12-12T17:40:44.365Z,5.86
2022-12-12T17:43:12.691Z,5.88
2022-12-12T17:45:41.217Z,5.86
2022-12-12T17:48:09.599Z,5.85
2022-12-12T17:50:41.666Z,5.61
2022-12-12T17:53:11.763Z,5.77
2022-12-12T17:55:54.626Z,5.38
2022-12-12T17:58:32.595Z,5.67
2022-12-12T18:01:02.333Z,5.57
2022-12-12T18:03:30.709Z,5.53
2022-12-12T18:06:01.599Z,5.56
2022-12-12T18:08:31.427Z,5.78
2022-12-12T18:10:59.850Z,5.58
2022-12-12T18:13:28.344Z,5.67
2022-12-12T18:15:57.922Z,5.74
2022-12-12T18:18:28.411Z,5.66
2022-12-12T18:20:56.932Z,5.64
2022-12-12T18:23:25.287Z,5.68
2022-12-12T18:25:55.107Z,5.67
2022-12-12T18:28:23.442Z,5.67
2022-12-12T18:30:51.833Z,5.62
2022-12-12T18:33:20.169Z,5.60
2022-12-12T18:35:48.511Z,5.60
2022-12-12T18:38:17.580Z,5.65
2022-12-12T18:40:45.948Z,5.67
2022-12-12T18:43:15.707Z,5.58
2022-12-12T18:45:44.169Z,5.57
2022-12-12T18:48:12.635Z,5.55
2022-12-12T18:50:41.002Z,5.52
2022-12-12T18:53:09.384Z,5.51
2022-12-12T18:55:42.338Z,5.39
2022-12-12T18:58:11.232Z,5.51
2022-12-12T19:00:41.352Z,5.47
2022-12-12T19:03:10.259Z,5.38
2022-12-12T19:05:42.639Z,5.40
2022-12-12T19:08:12.041Z,5.43
2022-12-12T19:10:40.913Z,5.41
2022-12-12T19:13:09.293Z,5.47
2022-12-12T19:15:37.651Z,5.40
2022-12-12T19:18:07.595Z,5.45
2022-12-12T19:20:37.151Z,5.40
2022-12-12T19:23:05.557Z,5.38
2022-12-12T19:25:40.893Z,5.31
2022-12-12T19:28:12.395Z,5.27
2022-12-12T19:30:42.363Z,5.35
2022-12-12T19:33:12.186Z,5.34
2022-12-12T19:35:40.550Z,5.34
2022-12-12T19:38:08.933Z,5.32
2022-12-12T19:40:37.269Z,5.25
2022-12-12T19:43:05.750Z,5.25
2022-12-12T19:45:34.080Z,5.22
2022-12-12T19:48:02.496Z,5.22
2022-12-12T19:50:32.180Z,5.13
2022-12-12T19:53:00.559Z,5.15
2022-12-12T19:55:28.973Z,5.11
2022-12-12T19:57:57.368Z,5.18
2022-12-12T20:00:26.021Z,5.13
2022-12-12T20:02:54.439Z,5.15
2022-12-12T20:05:22.849Z,5.19
2022-12-12T20:07:52.665Z,5.17
2022-12-12T20:10:21.045Z,5.15
2022-12-12T20:12:57.917Z,5.10
2022-12-12T20:15:27.152Z,5.08
2022-12-12T20:17:56.414Z,5.08
2022-12-12T20:20:24.772Z,5.15
2022-12-12T20:22:54.549Z,5.08
2022-12-12T20:25:22.891Z,5.06
2022-12-12T20:27:51.300Z,5.10
2022-12-12T20:30:19.822Z,5.05
2022-12-12T20:32:48.185Z,5.02
2022-12-12T20:35:16.712Z,4.98
2022-12-12T20:37:45.077Z,4.98
2022-12-12T20:40:15.243Z,5.05
2022-12-12T20:42:47.320Z,5.01
2022-12-12T20:45:18.841Z,4.99
2022-12-12T20:47:47.218Z,4.94
2022-12-12T20:50:15.705Z,4.97
2022-12-12T20:52:44.075Z,4.81
2022-12-12T20:55:12.725Z,4.89
2022-12-12T20:57:43.074Z,4.92
2022-12-12T21:00:13.447Z,4.83
2022-12-12T21:02:42.035Z,4.86
2022-12-12T21:05:11.531Z,4.85
2022-12-12T21:07:40.148Z,4.81
2022-12-12T21:10:09.412Z,4.85
2022-12-12T21:12:37.784Z,4.77
2022-12-12T21:15:09.359Z,4.78
2022-12-12T21:17:37.758Z,4.72
2022-12-12T21:20:08.824Z,4.81
2022-12-12T21:22:37.225Z,4.80
2022-12-12T21:25:06.290Z,4.79
2022-12-12T21:27:34.672Z,4.82
2022-12-12T21:30:03.041Z,4.75
2022-12-12T21:32:32.829Z,4.68
2022-12-12T21:35:01.235Z,4.65
2022-12-12T21:37:29.636Z,4.66
2022-12-12T21:39:58.308Z,4.67
2022-12-12T21:42:26.723Z,4.62
2022-12-12T21:44:55.087Z,4.61
2022-12-12T21:47:23.485Z,4.64
2022-12-12T21:49:53.283Z,4.61
2022-12-12T21:52:22.116Z,4.61
2022-12-12T21:54:50.539Z,4.61
2022-12-12T21:57:23.379Z,4.62
2022-12-12T21:59:53.328Z,4.65
2022-12-12T22:02:21.702Z,4.61
2022-12-12T22:04:50.086Z,4.51
2022-12-12T22:07:20.919Z,4.54
2022-12-12T22:09:57.679Z,4.54
2022-12-12T22:12:37.801Z,4.54
2022-12-12T22:15:07.472Z,4.63
2022-12-12T22:17:35.795Z,4.57
2022-12-12T22:20:04.342Z,4.44
2022-12-12T22:22:34.087Z,4.51
2022-12-12T22:25:02.475Z,4.45
2022-12-12T22:27:31.049Z,4.43
2022-12-12T22:29:59.427Z,4.51
2022-12-12T22:32:29.404Z,4.41
2022-12-12T22:34:59.209Z,4.43
2022-12-12T22:37:27.575Z,4.34
2022-12-12T22:39:57.320Z,4.38
2022-12-12T22:42:25.648Z,4.37
2022-12-12T22:44:54.008Z,4.34
2022-12-12T22:47:23.832Z,4.44
2022-12-12T22:49:53.406Z,4.41
2022-12-12T22:52:21.736Z,4.35
2022-12-12T22:54:50.080Z,4.31
2022-12-12T22:57:19.897Z,4.42
2022-12-12T22:59:49.017Z,4.36
2022-12-12T23:02:23.167Z,4.36
2022-12-12T23:04:53.418Z,4.27
2022-12-12T23:07:22.013Z,4.30
2022-12-12T23:09:53.483Z,4.27
2022-12-12T23:12:23.740Z,4.20
2022-12-12T23:14:52.087Z,4.15
2022-12-12T23:17:20.448Z,4.18
2022-12-12T23:19:48.823Z,4.26
2022-12-12T23:22:18.462Z,4.20
2022-12-12T23:24:46.834Z,4.22
2022-12-12T23:27:15.198Z,4.18
2022-12-12T23:29:44.999Z,4.17
2022-12-12T23:32:13.364Z,4.23
2022-12-12T23:34:41.694Z,4.20
2022-12-12T23:37:10.204Z,4.23
2022-12-12T23:39:38.700Z,4.17
2022-12-12T23:42:07.598Z,4.10
2022-12-12T23:44:35.960Z,4.14
2022-12-12T23:47:05.803Z,4.10
2022-12-12T23:49:34.209Z,4.07
2022-12-12T23:52:02.556Z,4.07
2022-12-12T23:54:33.666Z,4.02
2022-12-12T23:57:02.653Z,3.97
2022-12-12T23:59:31.374Z,4.01
